LFRS/NTE METAR and TAF weather

Enter ICAO airport designator
Station Type Date Time Source
LFRS METAR 2020/11/25 22:30 UTC NOAA

LFRS 252230Z AUTO 07005KT 9000 NSC 08/07 Q1016 BECMG 3000 BR


Station Type Date Time Source
LFRS Decoded METAR 2020/11/25 22:30 UTC NOAA

Nantes, France (LFRS) 47-10N 001-36W 27M
Nov 25, 2020 - 05:30 PM EST / 2020.11.25 2230 UTC
Wind: from the ENE (070 degrees) at 6 MPH (5 KT):0
Visibility: 5 mile(s):0
Temperature: 46 F (8 C)
Dew Point: 44 F (7 C)
Relative Humidity: 93%
Pressure (altimeter): 30.00 in. Hg (1016 hPa)
ob: LFRS 252230Z AUTO 07005KT 9000 NSC 08/07 Q1016 BECMG 3000 BR
cycle: 22

Station Type Date Time Source
LFRS TAF 2020/11/25 18:21 UTC NOAA

TAF LFRS 251700Z 2518/2624 17008KT CAVOK
BECMG 2522/2524 3000 BR
TEMPO 2602/2610 VRB03KT 0300 FG VV///
TEMPO 2610/2612 BKN008
BECMG 2610/2613 08005KT 9999 NSW

Example: see airport list